createdAt,value
2023-02-09T00:04:43.835Z,-3.63
2023-02-09T00:09:43.786Z,-3.66
2023-02-09T00:14:43.713Z,-3.66
2023-02-09T00:19:43.677Z,-3.66
2023-02-09T00:24:43.598Z,-3.59
2023-02-09T00:29:43.532Z,-3.57
2023-02-09T00:34:43.490Z,-3.65
2023-02-09T00:39:43.414Z,-3.62
2023-02-09T00:44:43.352Z,-3.65
2023-02-09T00:49:43.296Z,-3.74
2023-02-09T00:54:43.239Z,-3.74
2023-02-09T00:59:43.506Z,-3.78
2023-02-09T01:04:43.148Z,-3.84
2023-02-09T01:09:43.046Z,-3.87
2023-02-09T01:14:43.777Z,-3.87
2023-02-09T01:19:42.924Z,-3.88
2023-02-09T01:24:42.867Z,-3.91
2023-02-09T01:29:42.814Z,-3.99
2023-02-09T01:34:42.746Z,-4.07
2023-02-09T01:39:42.694Z,-4.18
2023-02-09T01:44:42.645Z,-4.27
2023-02-09T01:49:42.585Z,-4.28
2023-02-09T01:54:42.515Z,-4.27
2023-02-09T01:59:42.470Z,-4.30
2023-02-09T02:04:42.396Z,-4.35
2023-02-09T02:09:42.338Z,-4.42
2023-02-09T02:14:42.278Z,-4.48
2023-02-09T02:19:42.223Z,-4.49
2023-02-09T02:24:42.149Z,-4.64
2023-02-09T02:29:42.125Z,-4.66
2023-02-09T02:34:42.050Z,-4.78
2023-02-09T02:39:41.959Z,-4.85
2023-02-09T02:44:41.918Z,-4.92
2023-02-09T02:49:41.857Z,-4.93
2023-02-09T02:54:41.790Z,-4.91
2023-02-09T02:59:41.744Z,-4.85
2023-02-09T03:04:41.672Z,-4.92
2023-02-09T03:09:41.613Z,-4.99
2023-02-09T03:14:41.581Z,-5.05
2023-02-09T03:19:41.505Z,-5.17
2023-02-09T03:24:41.434Z,-5.22
2023-02-09T03:29:41.381Z,-5.29
2023-02-09T03:34:41.317Z,-5.31
2023-02-09T03:39:41.261Z,-5.35
2023-02-09T03:44:41.209Z,-5.46
2023-02-09T03:49:41.165Z,-5.59
2023-02-09T03:54:41.076Z,-5.63
2023-02-09T03:59:41.030Z,-5.68
2023-02-09T04:04:40.985Z,-5.75
2023-02-09T04:09:40.904Z,-5.78
2023-02-09T04:14:40.858Z,-5.83
2023-02-09T04:19:40.783Z,-5.86
2023-02-09T04:24:40.721Z,-5.98
2023-02-09T04:29:40.667Z,-5.98
2023-02-09T04:34:40.596Z,-5.98
2023-02-09T04:39:40.542Z,-6.00
2023-02-09T04:44:40.495Z,-6.08
2023-02-09T04:49:40.433Z,-6.07
2023-02-09T04:54:40.375Z,-6.24
2023-02-09T04:59:40.313Z,-6.21
2023-02-09T05:04:40.298Z,-6.25
2023-02-09T05:09:40.200Z,-6.31
2023-02-09T05:14:40.133Z,-6.35
2023-02-09T05:19:40.080Z,-6.49
2023-02-09T05:24:40.019Z,-6.47
2023-02-09T05:29:39.997Z,-6.52
2023-02-09T05:34:39.901Z,-6.62
2023-02-09T05:39:39.855Z,-6.77
2023-02-09T05:44:39.795Z,-6.83
2023-02-09T05:49:39.731Z,-6.93
2023-02-09T05:54:39.680Z,-7.03
2023-02-09T05:59:39.609Z,-7.11
2023-02-09T06:04:39.576Z,-7.22
2023-02-09T06:09:39.496Z,-7.08
2023-02-09T06:14:39.426Z,-7.00
2023-02-09T06:19:39.375Z,-6.97
2023-02-09T06:24:39.332Z,-6.85
2023-02-09T06:29:39.271Z,-7.04
2023-02-09T06:34:39.202Z,-7.06
2023-02-09T06:39:39.177Z,-7.15
2023-02-09T06:44:39.087Z,-7.15
2023-02-09T06:49:39.057Z,-7.19
2023-02-09T06:54:38.969Z,-7.24
2023-02-09T06:59:38.926Z,-7.40
2023-02-09T07:04:38.847Z,-7.25
2023-02-09T07:09:38.806Z,-7.01
2023-02-09T07:14:38.725Z,-6.71
2023-02-09T07:19:38.677Z,-6.40
2023-02-09T07:24:38.615Z,-6.16
2023-02-09T07:29:38.559Z,-5.99
2023-02-09T07:34:38.501Z,-5.67
2023-02-09T07:39:38.438Z,-5.43
2023-02-09T07:44:38.378Z,-5.20
2023-02-09T07:49:38.329Z,-5.05
2023-02-09T07:54:38.261Z,-4.80
2023-02-09T07:59:38.224Z,-4.56
2023-02-09T08:04:38.185Z,-4.24
2023-02-09T08:09:38.083Z,-4.07
2023-02-09T08:14:38.015Z,-3.66
2023-02-09T08:19:37.957Z,-3.38
2023-02-09T08:24:37.912Z,-3.15
2023-02-09T08:29:37.853Z,-2.88
2023-02-09T08:34:37.777Z,-2.95
2023-02-09T08:39:37.726Z,-2.73
2023-02-09T08:44:37.669Z,-2.58
2023-02-09T08:49:37.610Z,-2.27
2023-02-09T08:54:37.553Z,-2.12
2023-02-09T08:59:37.487Z,-2.18
2023-02-09T09:04:37.418Z,-2.09
2023-02-09T09:09:37.361Z,-2.00
2023-02-09T09:14:37.299Z,-1.93
2023-02-09T09:19:37.248Z,-1.78
2023-02-09T09:24:37.178Z,-1.47
2023-02-09T09:29:37.131Z,-1.41
2023-02-09T09:34:37.064Z,-1.19
2023-02-09T09:39:37.016Z,-0.94
2023-02-09T09:44:36.938Z,-0.78
2023-02-09T09:49:36.887Z,-0.45
2023-02-09T09:54:36.817Z,-0.31
2023-02-09T09:59:36.756Z,-0.31
2023-02-09T10:04:36.768Z,-0.22
2023-02-09T10:09:36.636Z,0.15
2023-02-09T10:14:36.574Z,0.47
2023-02-09T10:19:36.523Z,0.56
2023-02-09T10:24:36.456Z,0.90
2023-02-09T10:29:36.396Z,1.39
2023-02-09T10:34:36.340Z,1.71
2023-02-09T10:39:36.269Z,1.97
2023-02-09T10:44:36.219Z,2.35
2023-02-09T10:49:36.154Z,2.61
2023-02-09T10:54:36.078Z,2.63
2023-02-09T10:59:36.020Z,2.63
2023-02-09T11:04:36.005Z,2.54
2023-02-09T11:09:35.905Z,2.42
2023-02-09T11:14:35.834Z,2.72
2023-02-09T11:19:35.775Z,2.82
2023-02-09T11:24:35.726Z,3.02
2023-02-09T11:29:35.663Z,3.02
2023-02-09T11:34:35.593Z,3.02
2023-02-09T11:39:37.469Z,3.05
2023-02-09T11:44:35.481Z,3.22
2023-02-09T11:49:35.414Z,3.70
2023-02-09T11:54:35.353Z,3.88
2023-02-09T11:59:35.294Z,4.18
2023-02-09T12:04:35.222Z,4.24
2023-02-09T12:09:35.174Z,4.34
2023-02-09T12:14:35.093Z,4.54
2023-02-09T12:19:35.032Z,4.71
2023-02-09T12:24:34.959Z,4.71
2023-02-09T12:29:34.945Z,4.77
2023-02-09T12:34:34.890Z,4.83
2023-02-09T12:39:34.782Z,4.83
2023-02-09T12:44:34.773Z,4.75
2023-02-09T12:49:34.816Z,4.83
2023-02-09T12:54:34.591Z,4.93
2023-02-09T12:59:34.527Z,4.86
2023-02-09T13:04:34.477Z,4.94
2023-02-09T13:09:34.429Z,5.18
2023-02-09T13:14:34.345Z,5.16
2023-02-09T13:19:47.124Z,5.01
2023-02-09T13:24:35.224Z,5.14
2023-02-09T13:29:34.157Z,5.25
2023-02-09T13:34:34.126Z,5.33
2023-02-09T13:39:34.196Z,5.18
2023-02-09T13:44:33.974Z,4.86
2023-02-09T13:49:33.930Z,4.64
2023-02-09T13:54:33.856Z,4.59
2023-02-09T13:59:33.841Z,4.71
2023-02-09T14:04:33.737Z,4.78
2023-02-09T14:09:33.698Z,4.83
2023-02-09T14:14:33.588Z,4.78
2023-02-09T14:19:33.617Z,4.77
2023-02-09T14:24:33.522Z,4.85
2023-02-09T14:29:33.420Z,4.91
2023-02-09T14:34:33.370Z,4.93
2023-02-09T14:39:33.282Z,4.79
2023-02-09T14:44:33.220Z,4.86
2023-02-09T14:49:33.172Z,4.98
2023-02-09T14:54:33.106Z,4.91
2023-02-09T14:59:33.042Z,4.78
2023-02-09T15:04:32.974Z,4.74
2023-02-09T15:09:32.914Z,4.64
2023-02-09T15:14:32.855Z,4.35
2023-02-09T15:19:32.805Z,4.26
2023-02-09T15:24:32.733Z,4.17
2023-02-09T15:29:32.671Z,4.12
2023-02-09T15:34:32.600Z,4.17
2023-02-09T15:39:32.549Z,4.23
2023-02-09T15:44:32.487Z,4.20
2023-02-09T15:49:32.419Z,4.05
2023-02-09T15:54:32.392Z,4.00
2023-02-09T15:59:32.292Z,3.94
2023-02-09T16:04:32.237Z,3.64
2023-02-09T16:09:32.170Z,3.48
2023-02-09T16:14:32.123Z,3.27
2023-02-09T16:19:32.045Z,3.02
2023-02-09T16:24:31.970Z,2.82
2023-02-09T16:29:31.927Z,2.40
2023-02-09T16:34:31.858Z,2.29
2023-02-09T16:39:31.818Z,2.00
2023-02-09T16:44:31.736Z,1.80
2023-02-09T16:49:31.686Z,1.34
2023-02-09T16:54:31.615Z,0.84
2023-02-09T16:59:31.564Z,0.53
2023-02-09T17:04:31.491Z,0.14
2023-02-09T17:09:31.444Z,-0.11
2023-02-09T17:14:31.354Z,-0.27
2023-02-09T17:19:47.093Z,-0.31
2023-02-09T17:24:32.236Z,-0.46
2023-02-09T17:29:31.181Z,-0.50
2023-02-09T17:36:45.552Z,-0.66
2023-02-09T17:41:36.686Z,-0.84
2023-02-09T17:46:36.722Z,-0.98
2023-02-09T17:51:36.540Z,-1.08
2023-02-09T17:56:36.473Z,-1.23
2023-02-09T18:01:36.441Z,-1.29
2023-02-09T18:06:36.401Z,-1.46
2023-02-09T18:11:36.297Z,-1.41
2023-02-09T18:16:36.272Z,-1.62
2023-02-09T18:21:36.193Z,-1.58
2023-02-09T18:26:36.123Z,-1.69
2023-02-09T18:31:37.466Z,-1.80
2023-02-09T18:36:36.018Z,-1.78
2023-02-09T18:41:35.981Z,-1.86
2023-02-09T18:46:35.913Z,-2.01
2023-02-09T18:51:35.912Z,-2.21
2023-02-09T18:56:35.765Z,-2.34
2023-02-09T19:01:35.779Z,-2.40
2023-02-09T19:06:35.681Z,-2.46
2023-02-09T19:11:35.599Z,-2.43
2023-02-09T19:16:35.575Z,-2.41
2023-02-09T19:21:35.508Z,-2.27
2023-02-09T19:26:35.431Z,-2.27
2023-02-09T19:31:35.484Z,-2.30
2023-02-09T19:36:35.297Z,-2.41
2023-02-09T19:41:35.339Z,-2.51
2023-02-09T19:46:35.296Z,-2.51
2023-02-09T19:51:35.168Z,-2.48
2023-02-09T19:56:35.060Z,-2.51
2023-02-09T20:01:35.069Z,-2.52
2023-02-09T20:06:34.928Z,-2.73
2023-02-09T20:11:34.916Z,-3.02
2023-02-09T20:16:34.866Z,-3.20
2023-02-09T20:21:34.782Z,-3.29
2023-02-09T20:26:34.701Z,-3.36
2023-02-09T20:31:34.748Z,-3.51
2023-02-09T20:36:34.604Z,-3.62
2023-02-09T20:41:34.546Z,-3.72
2023-02-09T20:46:34.479Z,-3.84
2023-02-09T20:51:34.414Z,-3.97
2023-02-09T20:56:34.359Z,-4.03
2023-02-09T21:01:34.325Z,-4.00
2023-02-09T21:06:34.242Z,-4.06
2023-02-09T21:11:34.275Z,-4.10
2023-02-09T21:16:34.159Z,-4.14
2023-02-09T21:21:34.096Z,-4.18
2023-02-09T21:26:33.985Z,-4.18
2023-02-09T21:31:33.971Z,-4.10
2023-02-09T21:36:33.896Z,-4.06
2023-02-09T21:41:33.847Z,-3.97
2023-02-09T21:46:33.806Z,-3.91
2023-02-09T21:51:33.714Z,-3.85
2023-02-09T21:56:33.623Z,-3.74
2023-02-09T22:01:33.640Z,-3.63
2023-02-09T22:06:33.587Z,-3.57
2023-02-09T22:11:33.531Z,-3.52
2023-02-09T22:16:33.438Z,-3.52
2023-02-09T22:21:33.359Z,-3.55
2023-02-09T22:26:33.325Z,-3.74
2023-02-09T22:31:33.266Z,-3.87
2023-02-09T22:36:33.165Z,-4.02
2023-02-09T22:41:33.129Z,-4.07
2023-02-09T22:46:33.188Z,-4.06
2023-02-09T22:51:33.032Z,-4.02
2023-02-09T22:56:32.941Z,-3.92
2023-02-09T23:01:33.003Z,-3.89
2023-02-09T23:06:32.941Z,-3.97
2023-02-09T23:11:32.859Z,-4.10
2023-02-09T23:16:32.739Z,-4.15
2023-02-09T23:21:32.685Z,-4.31
2023-02-09T23:26:32.640Z,-4.42
2023-02-09T23:31:32.644Z,-4.60
2023-02-09T23:36:32.487Z,-4.77
2023-02-09T23:41:32.465Z,-4.85
2023-02-09T23:46:32.512Z,-4.98
2023-02-09T23:51:32.372Z,-4.96
2023-02-09T23:56:32.257Z,-5.05
